createdAt,value
2024-04-09T00:01:28.979Z,12.99
2024-04-09T00:04:01.741Z,13.03
2024-04-09T00:06:32.106Z,12.80
2024-04-09T00:09:07.666Z,12.75
2024-04-09T00:11:37.271Z,12.74
2024-04-09T00:14:09.576Z,12.78
2024-04-09T00:16:41.477Z,12.74
2024-04-09T00:19:18.591Z,12.73
2024-04-09T00:21:49.189Z,12.74
2024-04-09T00:24:23.887Z,12.86
2024-04-09T00:26:53.499Z,12.93
2024-04-09T00:29:26.125Z,13.00
2024-04-09T00:31:55.591Z,13.00
2024-04-09T00:34:27.689Z,12.88
2024-04-09T00:36:57.700Z,12.80
2024-04-09T00:39:35.434Z,12.75
2024-04-09T00:42:05.979Z,12.83
2024-04-09T00:44:39.467Z,12.64
2024-04-09T00:47:09.714Z,12.61
2024-04-09T00:49:42.808Z,12.51
2024-04-09T00:52:13.525Z,12.51
2024-04-09T00:54:50.961Z,12.71
2024-04-09T00:57:21.539Z,12.66
2024-04-09T00:59:56.458Z,12.47
2024-04-09T01:02:27.418Z,12.32
2024-04-09T01:05:01.203Z,12.36
2024-04-09T01:07:32.643Z,12.43
2024-04-09T01:10:08.906Z,12.42
2024-04-09T01:12:40.116Z,12.39
2024-04-09T01:15:14.919Z,12.33
2024-04-09T01:17:46.137Z,12.40
2024-04-09T01:20:19.846Z,12.47
2024-04-09T01:22:53.562Z,12.46
2024-04-09T01:25:26.690Z,12.50
2024-04-09T01:27:57.301Z,12.56
2024-04-09T01:30:31.668Z,12.65
2024-04-09T01:33:08.148Z,12.55
2024-04-09T01:35:42.282Z,12.42
2024-04-09T01:38:16.403Z,12.46
2024-04-09T01:40:51.670Z,12.44
2024-04-09T01:43:22.480Z,12.52
2024-04-09T01:45:55.148Z,12.47
2024-04-09T01:48:26.851Z,12.30
2024-04-09T01:51:00.903Z,12.34
2024-04-09T01:53:34.092Z,12.49
2024-04-09T01:56:06.975Z,12.52
2024-04-09T01:58:37.589Z,12.40
2024-04-09T02:01:11.231Z,12.20
2024-04-09T02:03:42.743Z,12.14
2024-04-09T02:06:21.365Z,12.15
2024-04-09T02:08:55.491Z,12.15
2024-04-09T02:11:30.315Z,11.98
2024-04-09T02:14:01.746Z,11.91
2024-04-09T02:16:34.365Z,11.87
2024-04-09T02:19:04.016Z,12.02
2024-04-09T02:21:36.842Z,12.20
2024-04-09T02:24:11.151Z,12.26
2024-04-09T02:26:44.520Z,12.21
2024-04-09T02:29:13.244Z,12.24
2024-04-09T02:31:45.327Z,12.25
2024-04-09T02:34:15.442Z,12.35
2024-04-09T02:36:48.628Z,12.43
2024-04-09T02:39:23.649Z,12.48
2024-04-09T02:41:56.929Z,12.49
2024-04-09T02:44:28.207Z,12.55
2024-04-09T02:47:01.499Z,12.60
2024-04-09T02:49:32.326Z,12.60
2024-04-09T02:52:04.766Z,12.63
2024-04-09T02:54:37.763Z,12.39
2024-04-09T02:57:10.427Z,12.13
2024-04-09T02:59:41.178Z,12.14
2024-04-09T03:02:13.873Z,12.24
2024-04-09T03:04:44.831Z,12.32
2024-04-09T03:07:17.983Z,12.45
2024-04-09T03:09:53.299Z,12.45
2024-04-09T03:12:26.315Z,12.47
2024-04-09T03:14:57.696Z,12.28
2024-04-09T03:17:30.813Z,12.27
2024-04-09T03:20:01.595Z,12.30
2024-04-09T03:22:37.644Z,12.24
2024-04-09T03:25:11.793Z,12.21
2024-04-09T03:27:46.668Z,12.15
2024-04-09T03:30:18.545Z,12.23
2024-04-09T03:32:55.026Z,12.26
2024-04-09T03:35:26.621Z,12.29
2024-04-09T03:37:59.825Z,12.36
2024-04-09T03:40:36.167Z,12.45
2024-04-09T03:43:10.979Z,12.28
2024-04-09T03:45:44.676Z,12.30
2024-04-09T03:48:33.160Z,12.21
2024-04-09T03:51:03.987Z,12.10
2024-04-09T03:53:38.061Z,12.08
2024-04-09T03:56:10.946Z,12.07
2024-04-09T03:58:45.743Z,12.17
2024-04-09T04:01:17.717Z,12.25
2024-04-09T04:03:52.007Z,12.35
2024-04-09T04:06:22.854Z,12.18
2024-04-09T04:08:56.522Z,12.10
2024-04-09T04:11:32.249Z,11.99
2024-04-09T04:14:05.812Z,12.01
2024-04-09T04:16:36.376Z,11.96
2024-04-09T04:19:09.807Z,11.97
2024-04-09T04:21:40.468Z,12.02
2024-04-09T04:24:14.580Z,12.05
2024-04-09T04:26:47.387Z,12.11
2024-04-09T04:29:20.276Z,12.12
2024-04-09T04:31:50.323Z,12.25
2024-04-09T04:34:23.948Z,12.27
2024-04-09T04:36:54.458Z,12.29
2024-04-09T04:39:29.068Z,12.32
2024-04-09T04:42:02.934Z,12.36
2024-04-09T04:44:36.045Z,12.30
2024-04-09T04:47:06.367Z,12.18
2024-04-09T04:49:40.578Z,12.04
2024-04-09T04:52:11.308Z,12.00
2024-04-09T04:54:46.106Z,12.04
2024-04-09T04:57:18.720Z,12.02
2024-04-09T04:59:53.986Z,12.01
2024-04-09T05:02:24.516Z,11.96
2024-04-09T05:04:58.392Z,12.01
2024-04-09T05:07:28.324Z,12.08
2024-04-09T05:10:01.773Z,12.05
2024-04-09T05:12:37.116Z,12.07
2024-04-09T05:15:10.828Z,12.09
2024-04-09T05:17:43.108Z,12.11
2024-04-09T05:20:17.468Z,12.19
2024-04-09T05:22:46.181Z,12.24
2024-04-09T05:25:21.745Z,12.35
2024-04-09T05:27:58.440Z,12.46
2024-04-09T05:30:27.860Z,12.36
2024-04-09T05:33:02.106Z,12.39
2024-04-09T05:35:32.880Z,12.41
2024-04-09T05:38:07.032Z,12.49
2024-04-09T05:40:37.114Z,12.46
2024-04-09T05:43:11.821Z,12.42
2024-04-09T05:45:41.287Z,12.48
2024-04-09T05:48:15.421Z,12.47
2024-04-09T05:50:46.144Z,12.59
2024-04-09T05:53:20.067Z,12.69
2024-04-09T05:55:56.328Z,12.81
2024-04-09T05:58:31.239Z,12.92
2024-04-09T06:01:02.378Z,13.00
2024-04-09T06:03:35.125Z,13.09
2024-04-09T06:06:05.667Z,13.21
2024-04-09T06:08:37.062Z,13.22
2024-04-09T06:11:06.921Z,13.36
2024-04-09T06:13:43.021Z,13.41
2024-04-09T06:16:15.501Z,13.50
2024-04-09T06:18:48.830Z,13.60
2024-04-09T06:21:19.196Z,13.49
2024-04-09T06:23:52.400Z,13.55
2024-04-09T06:26:22.278Z,13.55
2024-04-09T06:28:57.861Z,13.69
2024-04-09T06:31:27.716Z,13.87
2024-04-09T06:34:00.626Z,13.95
2024-04-09T06:36:31.092Z,14.16
2024-04-09T06:39:06.648Z,14.23
2024-04-09T06:41:36.564Z,14.41
2024-04-09T06:44:12.462Z,14.61
2024-04-09T06:46:42.230Z,14.72
2024-04-09T06:49:14.949Z,14.83
2024-04-09T06:51:45.215Z,15.01
2024-04-09T06:54:18.571Z,15.14
2024-04-09T06:56:48.861Z,15.35
2024-04-09T06:59:24.218Z,15.52
2024-04-09T07:01:54.145Z,15.39
2024-04-09T07:04:27.172Z,15.41
2024-04-09T07:06:57.055Z,15.41
2024-04-09T07:09:29.980Z,15.61
2024-04-09T07:11:59.943Z,15.62
2024-04-09T07:14:35.410Z,15.71
2024-04-09T07:17:05.710Z,15.86
2024-04-09T07:19:39.412Z,15.97
2024-04-09T07:22:09.110Z,16.19
2024-04-09T07:24:44.584Z,16.36
2024-04-09T07:27:13.987Z,16.61
2024-04-09T07:29:50.452Z,16.85
2024-04-09T07:32:17.934Z,16.92
2024-04-09T07:34:50.681Z,17.03
2024-04-09T07:37:20.028Z,17.17
2024-04-09T07:39:56.401Z,17.17
2024-04-09T07:42:25.956Z,17.20
2024-04-09T07:45:03.181Z,17.28
2024-04-09T07:47:34.587Z,17.27
2024-04-09T07:50:13.084Z,17.36
2024-04-09T07:52:44.434Z,17.46
2024-04-09T07:55:17.254Z,17.56
2024-04-09T07:57:47.812Z,17.74
2024-04-09T08:00:23.149Z,18.06
2024-04-09T08:02:53.960Z,18.23
2024-04-09T08:05:26.735Z,18.23
2024-04-09T08:07:57.014Z,18.11
2024-04-09T08:10:33.275Z,18.23
2024-04-09T08:13:03.770Z,18.12
2024-04-09T08:15:41.267Z,18.25
2024-04-09T08:18:12.131Z,18.33
2024-04-09T08:20:46.267Z,18.54
2024-04-09T08:23:18.300Z,18.79
2024-04-09T08:25:50.551Z,18.97
2024-04-09T08:28:20.224Z,19.20
2024-04-09T08:30:56.237Z,19.41
2024-04-09T08:33:28.330Z,19.58
2024-04-09T08:36:01.969Z,19.67
2024-04-09T08:38:29.913Z,19.68
2024-04-09T08:41:12.373Z,19.75
2024-04-09T08:43:45.814Z,19.82
2024-04-09T08:46:18.900Z,20.07
2024-04-09T08:48:51.672Z,20.24
2024-04-09T08:51:26.831Z,20.33
2024-04-09T08:54:09.843Z,20.56
2024-04-09T08:56:40.737Z,20.76
2024-04-09T08:59:14.570Z,20.77
2024-04-09T09:01:47.931Z,20.75
2024-04-09T09:04:20.343Z,21.09
2024-04-09T09:06:50.377Z,21.28
2024-04-09T09:09:29.998Z,21.09
2024-04-09T09:12:03.291Z,21.50
2024-04-09T09:14:35.648Z,21.36
2024-04-09T09:17:10.786Z,21.17
2024-04-09T09:19:51.599Z,21.32
2024-04-09T09:22:21.462Z,21.39
2024-04-09T09:25:12.562Z,21.58
2024-04-09T09:28:03.488Z,21.50
2024-04-09T09:30:45.119Z,21.49
2024-04-09T09:33:21.096Z,21.67
2024-04-09T09:35:54.744Z,21.86
2024-04-09T09:38:28.466Z,21.95
2024-04-09T09:41:14.770Z,21.60
2024-04-09T09:43:45.689Z,22.15
2024-04-09T09:46:18.940Z,22.49
2024-04-09T09:48:56.778Z,22.48
2024-04-09T09:51:30.497Z,22.58
2024-04-09T09:54:10.941Z,22.47
2024-04-09T09:56:44.076Z,21.94
2024-04-09T09:59:14.150Z,21.71
2024-04-09T10:01:49.719Z,22.18
2024-04-09T10:04:28.574Z,22.62
2024-04-09T10:07:04.867Z,22.43
2024-04-09T10:09:43.612Z,21.90
2024-04-09T10:12:26.949Z,22.13
2024-04-09T10:14:58.243Z,22.64
2024-04-09T10:17:31.728Z,22.39
2024-04-09T10:20:06.144Z,22.03
2024-04-09T10:22:40.786Z,22.21
2024-04-09T10:25:16.678Z,22.36
2024-04-09T10:27:51.395Z,22.22
2024-04-09T10:30:19.525Z,22.29
2024-04-09T10:32:59.820Z,22.45
2024-04-09T10:35:33.828Z,22.52
2024-04-09T10:38:08.371Z,22.73
2024-04-09T10:40:37.895Z,22.82
2024-04-09T10:43:12.260Z,22.80
2024-04-09T10:45:59.503Z,22.48
2024-04-09T10:49:13.325Z,22.60
2024-04-09T10:52:02.114Z,22.04
2024-04-09T10:54:50.057Z,22.02
2024-04-09T10:57:23.875Z,21.77
2024-04-09T11:00:12.533Z,21.79
2024-04-09T11:02:44.811Z,21.85
2024-04-09T11:05:25.551Z,21.91
2024-04-09T11:08:09.174Z,21.84
2024-04-09T11:10:45.931Z,21.91
2024-04-09T11:13:18.588Z,21.90
2024-04-09T11:16:06.012Z,22.00
2024-04-09T11:18:38.661Z,22.43
2024-04-09T11:21:13.993Z,22.66
2024-04-09T11:23:45.446Z,22.65
2024-04-09T11:26:21.255Z,22.75
2024-04-09T11:28:53.710Z,22.92
2024-04-09T11:31:27.062Z,23.13
2024-04-09T11:33:58.098Z,23.09
2024-04-09T11:36:32.727Z,23.33
2024-04-09T11:39:09.390Z,23.48
2024-04-09T11:41:45.557Z,23.19
2024-04-09T11:44:25.372Z,22.85
2024-04-09T11:46:54.952Z,22.51
2024-04-09T11:49:26.194Z,22.43
2024-04-09T11:51:55.932Z,22.41
2024-04-09T11:54:30.807Z,22.37
2024-04-09T11:57:00.384Z,22.49
2024-04-09T11:59:32.556Z,22.37
2024-04-09T12:02:02.219Z,22.43
2024-04-09T12:04:34.740Z,22.50
2024-04-09T12:07:05.443Z,22.15
2024-04-09T12:09:41.879Z,22.07
2024-04-09T12:12:11.983Z,21.98
2024-04-09T12:14:45.395Z,21.82
2024-04-09T12:17:15.967Z,21.77
2024-04-09T12:19:49.725Z,21.60
2024-04-09T12:22:19.594Z,21.70
2024-04-09T12:24:57.701Z,21.54
2024-04-09T12:27:25.885Z,21.24
2024-04-09T12:29:59.529Z,21.06
2024-04-09T12:32:29.196Z,21.23
2024-04-09T12:35:04.143Z,21.20
2024-04-09T12:37:37.334Z,21.07
2024-04-09T12:40:15.156Z,21.02
2024-04-09T12:42:45.669Z,20.95
2024-04-09T12:45:18.462Z,20.80
2024-04-09T12:47:49.457Z,20.63
2024-04-09T12:50:24.292Z,20.77
2024-04-09T12:52:54.502Z,20.55
2024-04-09T12:55:28.126Z,20.33
2024-04-09T12:57:58.824Z,20.17
2024-04-09T13:00:54.168Z,19.86
2024-04-09T13:03:25.623Z,19.86
2024-04-09T13:05:59.643Z,19.68
2024-04-09T13:08:30.705Z,19.42
2024-04-09T13:11:06.746Z,19.05
2024-04-09T13:13:37.448Z,19.10
2024-04-09T13:18:43.998Z,19.22
2024-04-09T13:21:16.239Z,19.14
2024-04-09T13:23:46.193Z,19.30
2024-04-09T13:26:21.629Z,19.37
2024-04-09T13:28:52.949Z,19.05
2024-04-09T13:31:25.232Z,18.81
2024-04-09T13:33:54.908Z,18.52
2024-04-09T13:36:27.206Z,18.23
2024-04-09T13:38:56.505Z,17.86
2024-04-09T13:41:31.330Z,17.69
2024-04-09T13:44:01.773Z,17.42
2024-04-09T13:46:34.017Z,17.53
2024-04-09T13:49:02.796Z,17.41
2024-04-09T13:51:35.154Z,17.39
2024-04-09T13:54:06.704Z,17.46
2024-04-09T13:56:43.255Z,17.75
2024-04-09T13:59:11.915Z,17.82
2024-04-09T14:01:44.360Z,17.97
2024-04-09T14:04:16.639Z,17.85
2024-04-09T14:06:49.609Z,17.87
2024-04-09T14:09:19.018Z,17.77
2024-04-09T14:11:54.451Z,18.00
2024-04-09T14:14:24.773Z,17.74
2024-04-09T14:16:56.808Z,17.62
2024-04-09T14:19:26.373Z,17.59
2024-04-09T14:21:59.276Z,17.41
2024-04-09T14:24:29.639Z,17.44
2024-04-09T14:27:04.446Z,17.55
2024-04-09T14:29:34.699Z,17.57
2024-04-09T14:32:07.275Z,17.84
2024-04-09T14:34:36.882Z,17.74
2024-04-09T14:37:08.929Z,17.49
2024-04-09T14:39:44.946Z,17.35
2024-04-09T14:42:22.646Z,17.40
2024-04-09T14:44:52.848Z,17.25
2024-04-09T14:47:25.143Z,17.24
2024-04-09T14:49:55.475Z,17.10
2024-04-09T14:52:27.613Z,17.08
2024-04-09T14:54:58.607Z,17.13
2024-04-09T14:57:33.393Z,17.17
2024-04-09T15:00:03.718Z,17.18
2024-04-09T15:02:36.526Z,17.02
2024-04-09T15:05:07.559Z,16.86
2024-04-09T15:07:42.449Z,17.12
2024-04-09T15:10:13.782Z,17.21
2024-04-09T15:12:50.355Z,17.13
2024-04-09T15:15:21.350Z,17.24
2024-04-09T15:17:55.741Z,17.13
2024-04-09T15:20:27.170Z,17.28
2024-04-09T15:23:00.711Z,17.10
2024-04-09T15:25:30.779Z,16.98
2024-04-09T15:28:05.973Z,16.98
2024-04-09T15:30:36.173Z,16.65
2024-04-09T15:33:11.371Z,16.64
2024-04-09T15:35:42.401Z,16.66
2024-04-09T15:38:19.623Z,16.55
2024-04-09T15:40:50.575Z,16.13
2024-04-09T15:43:26.562Z,16.02
2024-04-09T15:45:56.032Z,15.84
2024-04-09T15:48:28.619Z,15.70
2024-04-09T15:50:58.884Z,15.78
2024-04-09T15:53:32.249Z,15.69
2024-04-09T15:56:01.937Z,15.60
2024-04-09T15:58:37.674Z,15.60
2024-04-09T16:01:07.497Z,15.20
2024-04-09T16:03:44.149Z,15.08
2024-04-09T16:06:14.508Z,15.13
2024-04-09T16:08:48.963Z,15.19
2024-04-09T16:11:19.528Z,15.23
2024-04-09T16:13:54.871Z,15.21
2024-04-09T16:16:24.332Z,15.06
2024-04-09T16:18:59.692Z,15.17
2024-04-09T16:21:29.439Z,15.21
2024-04-09T16:24:02.039Z,15.40
2024-04-09T16:26:31.570Z,15.22
2024-04-09T16:29:05.261Z,15.30
2024-04-09T16:31:34.921Z,15.28
2024-04-09T16:34:09.338Z,15.20
2024-04-09T16:36:40.367Z,15.10
2024-04-09T16:39:14.335Z,15.07
2024-04-09T16:41:44.068Z,15.12
2024-04-09T16:44:18.964Z,15.16
2024-04-09T16:46:48.539Z,14.91
2024-04-09T16:49:21.118Z,14.95
2024-04-09T16:51:50.683Z,15.16
2024-04-09T16:54:24.210Z,15.18
2024-04-09T16:56:55.556Z,15.14
2024-04-09T16:59:28.961Z,15.14
2024-04-09T17:02:01.217Z,15.20
2024-04-09T17:04:33.842Z,15.02
2024-04-09T17:07:04.923Z,15.00
2024-04-09T17:09:38.609Z,14.80
2024-04-09T17:12:12.185Z,14.75
2024-04-09T17:14:45.388Z,14.74
2024-04-09T17:17:18.655Z,14.57
2024-04-09T17:19:50.459Z,14.50
2024-04-09T17:22:25.206Z,14.61
2024-04-09T17:24:55.623Z,14.68
2024-04-09T17:27:29.129Z,14.62
2024-04-09T17:30:03.969Z,14.44
2024-04-09T17:32:39.303Z,14.45
2024-04-09T17:35:08.332Z,14.36
2024-04-09T17:37:43.099Z,14.35
2024-04-09T17:40:14.106Z,14.31
2024-04-09T17:42:48.056Z,14.21
2024-04-09T17:45:23.163Z,14.34
2024-04-09T17:47:57.269Z,14.17
2024-04-09T17:50:30.946Z,14.08
2024-04-09T17:53:07.177Z,14.03
2024-04-09T17:55:37.226Z,13.96
2024-04-09T17:58:11.276Z,13.80
2024-04-09T18:00:41.368Z,14.04
2024-04-09T18:03:14.068Z,14.02
2024-04-09T18:05:44.778Z,14.06
2024-04-09T18:08:19.322Z,14.22
2024-04-09T18:10:50.196Z,14.18
2024-04-09T18:13:23.494Z,14.13
2024-04-09T18:15:58.689Z,13.87
2024-04-09T18:18:33.692Z,13.96
2024-04-09T18:21:05.321Z,13.99
2024-04-09T18:23:39.427Z,14.06
2024-04-09T18:26:12.540Z,14.06
2024-04-09T18:28:48.577Z,13.98
2024-04-09T18:31:21.095Z,13.86
2024-04-09T18:33:53.629Z,13.77
2024-04-09T18:36:23.486Z,13.48
2024-04-09T18:38:59.287Z,13.44
2024-04-09T18:41:29.152Z,13.38
2024-04-09T18:44:02.412Z,13.32
2024-04-09T18:46:35.181Z,13.29
2024-04-09T18:49:09.627Z,13.42
2024-04-09T18:51:39.613Z,13.21
2024-04-09T18:54:15.576Z,13.10
2024-04-09T18:56:45.156Z,13.17
2024-04-09T18:59:17.372Z,13.27
2024-04-09T19:01:49.763Z,13.11
2024-04-09T19:04:22.081Z,13.18
2024-04-09T19:06:51.366Z,13.33
2024-04-09T19:09:23.325Z,13.23
2024-04-09T19:11:53.001Z,13.16
2024-04-09T19:14:28.448Z,13.22
2024-04-09T19:17:02.146Z,13.18
2024-04-09T19:19:36.612Z,13.16
2024-04-09T19:22:04.540Z,13.17
2024-04-09T19:24:37.470Z,13.10
2024-04-09T19:27:06.913Z,13.05
2024-04-09T19:29:38.252Z,12.73
2024-04-09T19:32:10.979Z,12.98
2024-04-09T19:34:43.293Z,12.93
2024-04-09T19:37:13.455Z,13.03
2024-04-09T19:39:46.076Z,13.00
2024-04-09T19:42:16.174Z,13.06
2024-04-09T19:44:48.432Z,12.82
2024-04-09T19:47:21.081Z,12.91
2024-04-09T19:49:55.303Z,13.03
2024-04-09T19:52:24.821Z,12.96
2024-04-09T19:54:58.113Z,12.68
2024-04-09T19:57:27.997Z,12.71
2024-04-09T20:00:02.145Z,12.82
2024-04-09T20:02:45.388Z,12.72
2024-04-09T20:05:20.679Z,12.72
2024-04-09T20:07:50.411Z,12.56
2024-04-09T20:10:23.641Z,12.60
2024-04-09T20:12:53.661Z,12.61
2024-04-09T20:15:25.693Z,12.49
2024-04-09T20:18:00.723Z,12.65
2024-04-09T20:20:33.633Z,12.67
2024-04-09T20:23:05.509Z,12.67
2024-04-09T20:25:38.322Z,12.62
2024-04-09T20:28:07.697Z,12.80
2024-04-09T20:30:39.896Z,12.75
2024-04-09T20:33:13.716Z,12.93
2024-04-09T20:35:46.090Z,12.87
2024-04-09T20:38:16.933Z,12.92
2024-04-09T20:40:58.068Z,12.71
2024-04-09T20:43:29.793Z,12.81
2024-04-09T20:46:02.100Z,12.84
2024-04-09T20:48:34.819Z,12.82
2024-04-09T20:51:09.391Z,12.68
2024-04-09T20:53:39.034Z,12.72
2024-04-09T20:56:11.433Z,12.64
2024-04-09T20:58:42.638Z,12.65
2024-04-09T21:01:14.858Z,12.63
2024-04-09T21:03:47.901Z,12.63
2024-04-09T21:06:20.589Z,12.63
2024-04-09T21:08:53.478Z,12.43
2024-04-09T21:11:25.572Z,12.60
2024-04-09T21:13:55.401Z,12.66
2024-04-09T21:16:27.383Z,12.70
2024-04-09T21:18:59.702Z,12.63
2024-04-09T21:21:31.824Z,12.59
2024-04-09T21:24:01.506Z,12.53
2024-04-09T21:26:33.722Z,12.58
2024-04-09T21:29:04.443Z,12.44
2024-04-09T21:31:37.081Z,12.53
2024-04-09T21:34:10.577Z,12.41
2024-04-09T21:36:42.765Z,12.25
2024-04-09T21:39:12.284Z,12.25
2024-04-09T21:41:44.904Z,12.28
2024-04-09T21:44:15.257Z,12.13
2024-04-09T21:46:47.380Z,12.20
2024-04-09T21:49:20.255Z,12.06
2024-04-09T21:51:52.251Z,12.17
2024-04-09T21:54:22.172Z,12.28
2024-04-09T21:56:54.118Z,12.28
2024-04-09T21:59:25.816Z,12.32
2024-04-09T22:01:58.515Z,12.11
2024-04-09T22:04:30.799Z,12.13
2024-04-09T22:07:02.962Z,12.23
2024-04-09T22:09:33.457Z,12.10
2024-04-09T22:12:05.668Z,12.10
2024-04-09T22:14:35.759Z,12.01
2024-04-09T22:17:07.783Z,12.15
2024-04-09T22:19:41.075Z,12.21
2024-04-09T22:22:13.245Z,12.15
2024-04-09T22:24:43.352Z,12.22
2024-04-09T22:27:15.286Z,12.11
2024-04-09T22:29:48.408Z,12.17
2024-04-09T22:32:20.574Z,12.19
2024-04-09T22:34:54.202Z,12.00
2024-04-09T22:37:26.482Z,12.03
2024-04-09T22:39:57.240Z,12.04
2024-04-09T22:42:32.199Z,12.15
2024-04-09T22:45:09.820Z,12.20
2024-04-09T22:47:43.832Z,12.16
2024-04-09T22:50:16.342Z,12.13
2024-04-09T22:52:48.396Z,11.98
2024-04-09T22:55:20.284Z,12.03
2024-04-09T22:57:50.439Z,11.98
2024-04-09T23:00:21.713Z,11.80
2024-04-09T23:02:53.982Z,11.94
2024-04-09T23:05:30.581Z,11.86
2024-04-09T23:08:00.001Z,11.80
2024-04-09T23:10:32.786Z,11.83
2024-04-09T23:13:02.902Z,11.91
2024-04-09T23:15:35.487Z,11.90
2024-04-09T23:18:06.498Z,11.80
2024-04-09T23:20:42.221Z,11.90
2024-04-09T23:23:13.642Z,11.75
2024-04-09T23:25:47.699Z,11.75
2024-04-09T23:28:18.773Z,11.83
2024-04-09T23:30:51.792Z,11.88
2024-04-09T23:33:21.758Z,11.97
2024-04-09T23:35:56.516Z,11.90
2024-04-09T23:38:26.977Z,11.94
2024-04-09T23:41:03.968Z,11.87
2024-04-09T23:43:34.362Z,11.87
2024-04-09T23:46:09.185Z,11.85
2024-04-09T23:48:40.605Z,11.63
2024-04-09T23:51:15.591Z,11.73
2024-04-09T23:53:48.552Z,11.79
2024-04-09T23:56:20.740Z,11.77
2024-04-09T23:58:50.279Z,11.69
